Star Of Palm Beach — WCZ4328 — position and weather

sailwx.info

Track history (hours):
 
Tides and Currents Weather Stations Pressure Air Temp Water Temp Dewpoint Dewpoint Depression Visibility Wind Speed Wind Dir Waves Ship Positions

Star Of Palm Beach

Owner: STAR LINE CRUISE INC, PORTSMOUTH, NH. More information available from US FCC via Universal Licensing System and Coast Guard Vessel Documentation Center.

Last reported at 2013-Sep-22 09:34 UTC. Time now 2014-Oct-22 23:10 UTC.
Position N 40°39' W 074°02'.
Warning: this ship's position is years out of date!

Length 220 m; draft 24.8 m.

Type: Pilot. MMSI: 36705530.

Date/timePositionNaut miles runAvg speedWind from/ knotsBaromVisibWave heightAir tempDewpointWater temp
2013-Sep-22 09:34N 40°39' W 074°02'0 0.0
2013-Sep-22 08:33N 40°39' W 074°02'0 0.0
2013-Sep-22 07:33N 40°39' W 074°02'0 0.0
2013-Sep-22 06:33N 40°39' W 074°02'0 0.0
2013-Sep-22 05:34N 40°39' W 074°02'0 0.0
2013-Sep-22 04:34N 40°39' W 074°02'2 2.0
2013-Sep-22 03:34N 40°41' W 074°02'5 4.8
2013-Sep-22 02:32N 40°46' W 074°01'2 2.2
2013-Sep-22 01:33N 40°44' W 074°01'2 1.6
2013-Sep-22 00:33N 40°42' W 074°00'1 1.4
2013-Sep-21 23:33N 40°43' W 074°02'4 3.8
2013-Sep-21 22:29N 40°47' W 074°00'2 0.6
2013-Sep-21 19:33N 40°45' W 074°01'5 5.5
2013-Sep-21 18:34N 40°39' W 074°02'1 0.1
2013-Sep-21 11:33N 40°39' W 074°02'0 0.0
2013-Sep-21 10:33N 40°39' W 074°02'0 0.0
2013-Sep-21 09:33N 40°39' W 074°02'0 0.0
2013-Sep-21 08:33N 40°39' W 074°02'0 0.0
2013-Sep-21 07:33N 40°39' W 074°02'0 0.0
2013-Sep-21 06:33N 40°39' W 074°02'0 0.2
2013-Sep-21 05:33N 40°39' W 074°02'7 6.8
2013-Sep-21 04:33N 40°46' W 074°00'1 1.4
2013-Sep-21 03:33N 40°44' W 074°01'2 1.6
2013-Sep-21 02:33N 40°43' W 074°02'3 3.0
2013-Sep-21 01:33N 40°46' W 074°01'0 0.1
2013-Sep-21 00:08N 40°46' W 074°00'2 3.3
2013-Sep-20 23:33N 40°44' W 074°01'5 0.4
2013-Sep-20 12:09N 40°39' W 074°02'0 0.0
2013-Sep-20 11:33N 40°39' W 074°02'0 0.0
2013-Sep-20 10:33N 40°39' W 074°02'0 0.0
2013-Sep-20 09:33N 40°39' W 074°02'0 0.0
2013-Sep-20 08:33N 40°39' W 074°02'0 0.0
2013-Sep-20 07:33N 40°39' W 074°02'0 0.0
2013-Sep-20 06:33N 40°39' W 074°02'0 0.0
2013-Sep-20 05:34N 40°39' W 074°02'2 2.1
2013-Sep-20 04:33N 40°41' W 074°02'3 1.6
2013-Sep-20 02:33N 40°44' W 074°01'1 1.3
2013-Sep-20 01:33N 40°43' W 074°02'3 0.2
2013-Sep-19 09:17N 40°46' W 074°00'0 0.1
2013-Sep-19 02:06N 40°46' W 074°01'4 7.3
2013-Sep-19 01:33N 40°42' W 074°02'3 3.3
2013-Sep-19 00:33N 40°45' W 074°01'1 0.5
2013-Sep-18 21:33N 40°44' W 074°01'  
2013-Sep-14 12:19N 40°39' W 074°02'0 0.0
2013-Sep-14 11:33N 40°39' W 074°02'0 0.0
2013-Sep-14 10:33N 40°39' W 074°02'0 0.0
2013-Sep-14 09:33N 40°39' W 074°02'0 0.0
2013-Sep-14 08:33N 40°39' W 074°02'0 0.0
2013-Sep-14 07:33N 40°39' W 074°02'0 0.0
2013-Sep-14 06:33N 40°39' W 074°02'1 0.5
2013-Sep-14 05:33N 40°39' W 074°02'5 2.4
2013-Sep-14 03:33N 40°44' W 074°01'2 2.4
2013-Sep-14 02:33N 40°42' W 074°02'2 1.6
2013-Sep-14 01:33N 40°43' W 074°01'2 1.6
2013-Sep-14 00:03N 40°46' W 074°00'2 4.5
2013-Sep-13 23:33N 40°43' W 074°01'5 0.3
2013-Sep-13 09:34N 40°39' W 074°02'0 0.0
2013-Sep-13 08:34N 40°39' W 074°02'0 0.0
2013-Sep-13 07:34N 40°39' W 074°02'0 0.0
2013-Sep-13 06:34N 40°39' W 074°02'0 0.0
2013-Sep-13 05:33N 40°39' W 074°02'0 0.0
2013-Sep-13 04:34N 40°39' W 074°02'0 0.0
2013-Sep-13 03:34N 40°39' W 074°02'0 0.0
2013-Sep-13 02:34N 40°39' W 074°02'0 0.0
2013-Sep-13 01:33N 40°39' W 074°02'6 6.2
2013-Sep-13 00:33N 40°45' W 074°01'2 0.6
2013-Sep-12 21:33N 40°43' W 074°01'5 4.6
2013-Sep-12 20:34N 40°39' W 074°02'0 0.0
2013-Sep-12 14:09N 40°39' W 074°02'0 0.0
2013-Sep-12 13:33N 40°39' W 074°02'0 0.0
2013-Sep-12 12:34N 40°39' W 074°02'0 0.0
2013-Sep-12 11:34N 40°39' W 074°02'0 0.0
2013-Sep-12 10:33N 40°39' W 074°02'  
Track history (hours):
 
Tides and Currents Weather Stations Pressure Air Temp Water Temp Dewpoint Dewpoint Depression Visibility Wind Speed Wind Dir Waves Ship Positions

Star Of Palm Beach

Owner: STAR LINE CRUISE INC, PORTSMOUTH, NH. More information available from US FCC via Universal Licensing System and Coast Guard Vessel Documentation Center.

Last reported at 2013-Sep-22 09:34 UTC. Time now 2014-Oct-22 23:10 UTC.
Position N 40°39' W 074°02'.
Warning: this ship's position is years out of date!

Length 220 m; draft 24.8 m.

Type: Pilot. MMSI: 36705530.

Date/timePositionNaut miles runAvg speedWind from/ knotsBaromVisibWave heightAir tempDewpointWater temp
2013-Sep-22 09:34N 40°39' W 074°02'0 0.0
2013-Sep-22 08:33N 40°39' W 074°02'0 0.0
2013-Sep-22 07:33N 40°39' W 074°02'0 0.0
2013-Sep-22 06:33N 40°39' W 074°02'0 0.0
2013-Sep-22 05:34N 40°39' W 074°02'0 0.0
2013-Sep-22 04:34N 40°39' W 074°02'2 2.0
2013-Sep-22 03:34N 40°41' W 074°02'5 4.8
2013-Sep-22 02:32N 40°46' W 074°01'2 2.2
2013-Sep-22 01:33N 40°44' W 074°01'2 1.6
2013-Sep-22 00:33N 40°42' W 074°00'1 1.4
2013-Sep-21 23:33N 40°43' W 074°02'4 3.8
2013-Sep-21 22:29N 40°47' W 074°00'2 0.6
2013-Sep-21 19:33N 40°45' W 074°01'5 5.5
2013-Sep-21 18:34N 40°39' W 074°02'1 0.1
2013-Sep-21 11:33N 40°39' W 074°02'0 0.0
2013-Sep-21 10:33N 40°39' W 074°02'0 0.0
2013-Sep-21 09:33N 40°39' W 074°02'0 0.0
2013-Sep-21 08:33N 40°39' W 074°02'0 0.0
2013-Sep-21 07:33N 40°39' W 074°02'0 0.0
2013-Sep-21 06:33N 40°39' W 074°02'0 0.2
2013-Sep-21 05:33N 40°39' W 074°02'7 6.8
2013-Sep-21 04:33N 40°46' W 074°00'1 1.4
2013-Sep-21 03:33N 40°44' W 074°01'2 1.6
2013-Sep-21 02:33N 40°43' W 074°02'3 3.0
2013-Sep-21 01:33N 40°46' W 074°01'0 0.1
2013-Sep-21 00:08N 40°46' W 074°00'2 3.3
2013-Sep-20 23:33N 40°44' W 074°01'5 0.4
2013-Sep-20 12:09N 40°39' W 074°02'0 0.0
2013-Sep-20 11:33N 40°39' W 074°02'0 0.0
2013-Sep-20 10:33N 40°39' W 074°02'0 0.0
2013-Sep-20 09:33N 40°39' W 074°02'0 0.0
2013-Sep-20 08:33N 40°39' W 074°02'0 0.0
2013-Sep-20 07:33N 40°39' W 074°02'0 0.0
2013-Sep-20 06:33N 40°39' W 074°02'0 0.0
2013-Sep-20 05:34N 40°39' W 074°02'2 2.1
2013-Sep-20 04:33N 40°41' W 074°02'3 1.6
2013-Sep-20 02:33N 40°44' W 074°01'1 1.3
2013-Sep-20 01:33N 40°43' W 074°02'3 0.2
2013-Sep-19 09:17N 40°46' W 074°00'0 0.1
2013-Sep-19 02:06N 40°46' W 074°01'4 7.3
2013-Sep-19 01:33N 40°42' W 074°02'3 3.3
2013-Sep-19 00:33N 40°45' W 074°01'1 0.5
2013-Sep-18 21:33N 40°44' W 074°01'  
2013-Sep-14 12:19N 40°39' W 074°02'0 0.0
2013-Sep-14 11:33N 40°39' W 074°02'0 0.0
2013-Sep-14 10:33N 40°39' W 074°02'0 0.0
2013-Sep-14 09:33N 40°39' W 074°02'0 0.0
2013-Sep-14 08:33N 40°39' W 074°02'0 0.0
2013-Sep-14 07:33N 40°39' W 074°02'0 0.0
2013-Sep-14 06:33N 40°39' W 074°02'1 0.5
2013-Sep-14 05:33N 40°39' W 074°02'5 2.4
2013-Sep-14 03:33N 40°44' W 074°01'2 2.4
2013-Sep-14 02:33N 40°42' W 074°02'2 1.6
2013-Sep-14 01:33N 40°43' W 074°01'2 1.6
2013-Sep-14 00:03N 40°46' W 074°00'2 4.5
2013-Sep-13 23:33N 40°43' W 074°01'5 0.3
2013-Sep-13 09:34N 40°39' W 074°02'0 0.0
2013-Sep-13 08:34N 40°39' W 074°02'0 0.0
2013-Sep-13 07:34N 40°39' W 074°02'0 0.0
2013-Sep-13 06:34N 40°39' W 074°02'0 0.0
2013-Sep-13 05:33N 40°39' W 074°02'0 0.0
2013-Sep-13 04:34N 40°39' W 074°02'0 0.0
2013-Sep-13 03:34N 40°39' W 074°02'0 0.0
2013-Sep-13 02:34N 40°39' W 074°02'0 0.0
2013-Sep-13 01:33N 40°39' W 074°02'6 6.2
2013-Sep-13 00:33N 40°45' W 074°01'2 0.6
2013-Sep-12 21:33N 40°43' W 074°01'5 4.6
2013-Sep-12 20:34N 40°39' W 074°02'0 0.0
2013-Sep-12 14:09N 40°39' W 074°02'0 0.0
2013-Sep-12 13:33N 40°39' W 074°02'0 0.0
2013-Sep-12 12:34N 40°39' W 074°02'0 0.0
2013-Sep-12 11:34N 40°39' W 074°02'0 0.0
2013-Sep-12 10:33N 40°39' W 074°02'  

Dump ship's entire track history